sensor_id;sensor_type;location;lat;lon;timestamp;pressure;altitude;pressure_sealevel;temperature;humidity
25080;BME280;13071;48.868;9.996;2023-03-23T00:00:01;96004.03;;;11.40;65.38
25080;BME280;13071;48.868;9.996;2023-03-23T00:02:30;95992.59;;;11.47;64.33
25080;BME280;13071;48.868;9.996;2023-03-23T00:05:00;95992.94;;;11.45;64.17
25080;BME280;13071;48.868;9.996;2023-03-23T00:07:28;96001.84;;;11.46;64.42
25080;BME280;13071;48.868;9.996;2023-03-23T00:09:56;95990.84;;;11.39;65.49
25080;BME280;13071;48.868;9.996;2023-03-23T00:12:24;95993.63;;;11.26;65.89
25080;BME280;13071;48.868;9.996;2023-03-23T00:14:58;95995.41;;;11.35;65.49
25080;BME280;13071;48.868;9.996;2023-03-23T00:17:26;95988.69;;;11.44;65.36
25080;BME280;13071;48.868;9.996;2023-03-23T00:19:52;95988.63;;;11.60;64.45
25080;BME280;13071;48.868;9.996;2023-03-23T00:22:19;96001.78;;;11.58;64.72
25080;BME280;13071;48.868;9.996;2023-03-23T00:24:47;95997.81;;;11.55;64.86
25080;BME280;13071;48.868;9.996;2023-03-23T00:27:17;95985.00;;;11.52;65.30
25080;BME280;13071;48.868;9.996;2023-03-23T00:29:44;95986.03;;;11.63;64.48
25080;BME280;13071;48.868;9.996;2023-03-23T00:32:12;95978.19;;;11.58;64.15
25080;BME280;13071;48.868;9.996;2023-03-23T00:34:39;95978.00;;;11.51;64.70
25080;BME280;13071;48.868;9.996;2023-03-23T00:37:08;95991.09;;;11.65;64.43
25080;BME280;13071;48.868;9.996;2023-03-23T00:39:35;95977.91;;;11.63;64.25
25080;BME280;13071;48.868;9.996;2023-03-23T00:42:03;95975.34;;;11.55;64.75
25080;BME280;13071;48.868;9.996;2023-03-23T00:44:32;95962.53;;;11.52;64.86
25080;BME280;13071;48.868;9.996;2023-03-23T00:47:00;95960.94;;;11.51;65.33
25080;BME280;13071;48.868;9.996;2023-03-23T00:49:27;95955.00;;;11.45;65.93
25080;BME280;13071;48.868;9.996;2023-03-23T00:51:55;95947.84;;;11.37;66.41
25080;BME280;13071;48.868;9.996;2023-03-23T00:54:23;95944.88;;;11.42;66.49
25080;BME280;13071;48.868;9.996;2023-03-23T00:56:50;95951.34;;;11.38;67.12
25080;BME280;13071;48.868;9.996;2023-03-23T00:59:17;95949.50;;;11.42;66.09
25080;BME280;13071;48.868;9.996;2023-03-23T01:01:45;95963.31;;;11.37;66.88
25080;BME280;13071;48.868;9.996;2023-03-23T01:04:12;95954.78;;;11.35;67.36
25080;BME280;13071;48.868;9.996;2023-03-23T01:06:41;95959.81;;;11.36;68.05
25080;BME280;13071;48.868;9.996;2023-03-23T01:09:10;95955.63;;;11.39;66.98
25080;BME280;13071;48.868;9.996;2023-03-23T01:11:40;95945.16;;;11.37;66.64
25080;BME280;13071;48.868;9.996;2023-03-23T01:14:06;95943.31;;;11.41;66.18
25080;BME280;13071;48.868;9.996;2023-03-23T01:16:33;95933.25;;;11.42;66.20
25080;BME280;13071;48.868;9.996;2023-03-23T01:19:01;95928.19;;;11.40;66.42
25080;BME280;13071;48.868;9.996;2023-03-23T01:21:28;95928.97;;;11.41;66.07
25080;BME280;13071;48.868;9.996;2023-03-23T01:23:54;95928.97;;;11.41;66.31
25080;BME280;13071;48.868;9.996;2023-03-23T01:26:23;95923.91;;;11.39;65.98
25080;BME280;13071;48.868;9.996;2023-03-23T01:28:50;95930.81;;;11.37;66.20
25080;BME280;13071;48.868;9.996;2023-03-23T01:31:18;95927.31;;;11.36;65.68
25080;BME280;13071;48.868;9.996;2023-03-23T01:33:45;95926.53;;;11.36;66.28
25080;BME280;13071;48.868;9.996;2023-03-23T01:36:15;95922.28;;;11.35;65.97
25080;BME280;13071;48.868;9.996;2023-03-23T01:38:43;95918.66;;;11.31;66.09
25080;BME280;13071;48.868;9.996;2023-03-23T01:41:10;95919.91;;;11.33;65.87
25080;BME280;13071;48.868;9.996;2023-03-23T01:46:18;95909.94;;;11.37;65.65
25080;BME280;13071;48.868;9.996;2023-03-23T01:48:48;95916.13;;;11.38;65.62
25080;BME280;13071;48.868;9.996;2023-03-23T01:51:18;95912.63;;;11.37;65.65
25080;BME280;13071;48.868;9.996;2023-03-23T01:53:48;95909.13;;;11.37;65.83
25080;BME280;13071;48.868;9.996;2023-03-23T01:56:20;95909.94;;;11.37;65.77
25080;BME280;13071;48.868;9.996;2023-03-23T01:58:50;95904.84;;;11.36;66.29
25080;BME280;13071;48.868;9.996;2023-03-23T02:01:17;95896.31;;;11.34;66.32
25080;BME280;13071;48.868;9.996;2023-03-23T02:03:47;95904.97;;;11.39;67.57
25080;BME280;13071;48.868;9.996;2023-03-23T02:06:14;95902.50;;;11.34;67.42
25080;BME280;13071;48.868;9.996;2023-03-23T02:08:43;95902.13;;;11.36;67.41
25080;BME280;13071;48.868;9.996;2023-03-23T02:11:13;95896.31;;;11.34;70.37
25080;BME280;13071;48.868;9.996;2023-03-23T02:13:40;95895.34;;;11.26;72.19
25080;BME280;13071;48.868;9.996;2023-03-23T02:16:11;95898.25;;;11.17;72.07
25080;BME280;13071;48.868;9.996;2023-03-23T02:18:56;95900.34;;;11.08;72.41
25080;BME280;13071;48.868;9.996;2023-03-23T02:21:44;95885.41;;;10.83;75.64
25080;BME280;13071;48.868;9.996;2023-03-23T02:24:30;95881.75;;;10.75;75.49
25080;BME280;13071;48.868;9.996;2023-03-23T02:27:07;95880.25;;;10.94;73.07
25080;BME280;13071;48.868;9.996;2023-03-23T02:29:59;95875.34;;;10.68;75.17
25080;BME280;13071;48.868;9.996;2023-03-23T02:32:51;95876.06;;;10.65;76.04
25080;BME280;13071;48.868;9.996;2023-03-23T02:35:29;95877.34;;;10.71;75.64
25080;BME280;13071;48.868;9.996;2023-03-23T02:38:00;95869.94;;;10.68;76.38
25080;BME280;13071;48.868;9.996;2023-03-23T02:40:32;95870.13;;;10.59;77.51
25080;BME280;13071;48.868;9.996;2023-03-23T02:43:00;95870.81;;;10.72;76.43
25080;BME280;13071;48.868;9.996;2023-03-23T02:45:29;95879.81;;;10.76;77.20
25080;BME280;13071;48.868;9.996;2023-03-23T02:47:58;95880.59;;;10.76;77.48
25080;BME280;13071;48.868;9.996;2023-03-23T02:50:29;95870.03;;;10.71;78.34
25080;BME280;13071;48.868;9.996;2023-03-23T02:52:59;95874.66;;;10.71;79.08
25080;BME280;13071;48.868;9.996;2023-03-23T02:55:27;95876.59;;;10.70;78.60
25080;BME280;13071;48.868;9.996;2023-03-23T02:57:55;95879.91;;;10.64;80.35
25080;BME280;13071;48.868;9.996;2023-03-23T03:00:22;95868.63;;;10.62;80.00
25080;BME280;13071;48.868;9.996;2023-03-23T03:02:50;95878.41;;;10.66;79.47
25080;BME280;13071;48.868;9.996;2023-03-23T03:05:25;95877.34;;;10.71;79.72
25080;BME280;13071;48.868;9.996;2023-03-23T03:08:11;95849.59;;;10.58;79.89
25080;BME280;13071;48.868;9.996;2023-03-23T03:10:44;95860.63;;;10.65;79.78
25080;BME280;13071;48.868;9.996;2023-03-23T03:13:21;95848.50;;;10.75;77.98
25080;BME280;13071;48.868;9.996;2023-03-23T03:15:54;95840.78;;;10.77;77.30
25080;BME280;13071;48.868;9.996;2023-03-23T03:18:24;95845.06;;;10.78;77.69
25080;BME280;13071;48.868;9.996;2023-03-23T03:20:55;95832.16;;;10.71;78.87
25080;BME280;13071;48.868;9.996;2023-03-23T03:23:27;95839.91;;;10.73;78.24
25080;BME280;13071;48.868;9.996;2023-03-23T03:25:55;95829.88;;;10.73;78.88
25080;BME280;13071;48.868;9.996;2023-03-23T03:28:24;95827.63;;;10.75;78.14
25080;BME280;13071;48.868;9.996;2023-03-23T03:30:53;95830.22;;;10.72;78.26
25080;BME280;13071;48.868;9.996;2023-03-23T03:33:21;95824.03;;;10.71;77.86
25080;BME280;13071;48.868;9.996;2023-03-23T03:35:51;95832.06;;;10.68;78.78
25080;BME280;13071;48.868;9.996;2023-03-23T03:38:18;95833.31;;;10.70;78.63
25080;BME280;13071;48.868;9.996;2023-03-23T03:40:46;95832.94;;;10.72;78.00
25080;BME280;13071;48.868;9.996;2023-03-23T03:43:13;95833.13;;;10.79;77.43
25080;BME280;13071;48.868;9.996;2023-03-23T03:45:39;95835.47;;;10.80;77.69
25080;BME280;13071;48.868;9.996;2023-03-23T03:48:07;95835.81;;;10.79;77.53
25080;BME280;13071;48.868;9.996;2023-03-23T03:50:33;95833.19;;;10.82;77.33
25080;BME280;13071;48.868;9.996;2023-03-23T03:53:00;95834.06;;;10.87;76.82
25080;BME280;13071;48.868;9.996;2023-03-23T03:55:27;95829.88;;;10.89;76.83
25080;BME280;13071;48.868;9.996;2023-03-23T03:57:55;95829.88;;;10.89;76.54
25080;BME280;13071;48.868;9.996;2023-03-23T04:00:22;95821.31;;;10.87;77.42
25080;BME280;13071;48.868;9.996;2023-03-23T04:02:49;95820.97;;;10.89;76.39
25080;BME280;13071;48.868;9.996;2023-03-23T04:05:19;95821.91;;;10.80;77.47
25080;BME280;13071;48.868;9.996;2023-03-23T04:07:46;95832.25;;;10.75;78.23
25080;BME280;13071;48.868;9.996;2023-03-23T04:10:17;95824.38;;;10.86;77.00
25080;BME280;13071;48.868;9.996;2023-03-23T04:12:45;95828.31;;;10.88;77.57
25080;BME280;13071;48.868;9.996;2023-03-23T04:15:13;95831.09;;;10.92;77.39
25080;BME280;13071;48.868;9.996;2023-03-23T04:17:40;95825.84;;;10.99;76.37
25080;BME280;13071;48.868;9.996;2023-03-23T04:20:09;95823.81;;;11.11;74.80
25080;BME280;13071;48.868;9.996;2023-03-23T04:22:41;95820.41;;;11.14;74.33
25080;BME280;13071;48.868;9.996;2023-03-23T04:25:09;95814.81;;;11.23;73.66
25080;BME280;13071;48.868;9.996;2023-03-23T04:27:37;95812.41;;;11.37;72.79
25080;BME280;13071;48.868;9.996;2023-03-23T04:30:05;95814.56;;;11.47;72.09
25080;BME280;13071;48.868;9.996;2023-03-23T04:32:33;95818.34;;;11.43;72.99
25080;BME280;13071;48.868;9.996;2023-03-23T04:35:01;95818.34;;;11.43;74.16
25080;BME280;13071;48.868;9.996;2023-03-23T04:37:28;95818.75;;;11.45;74.10
25080;BME280;13071;48.868;9.996;2023-03-23T04:39:55;95811.34;;;11.42;74.79
25080;BME280;13071;48.868;9.996;2023-03-23T04:42:26;95814.53;;;11.28;75.12
25080;BME280;13071;48.868;9.996;2023-03-23T04:44:53;95814.19;;;11.30;74.46
25080;BME280;13071;48.868;9.996;2023-03-23T04:47:20;95810.75;;;11.33;74.16
25080;BME280;13071;48.868;9.996;2023-03-23T04:49:48;95818.09;;;11.32;74.21
25080;BME280;13071;48.868;9.996;2023-03-23T04:52:16;95811.09;;;11.31;73.82
25080;BME280;13071;48.868;9.996;2023-03-23T04:54:42;95820.81;;;11.32;73.30
25080;BME280;13071;48.868;9.996;2023-03-23T04:57:09;95822.91;;;11.39;73.65
25080;BME280;13071;48.868;9.996;2023-03-23T04:59:37;95822.09;;;11.38;74.44
25080;BME280;13071;48.868;9.996;2023-03-23T05:02:04;95817.81;;;11.37;74.95
25080;BME280;13071;48.868;9.996;2023-03-23T05:04:30;95814.59;;;11.32;74.47
25080;BME280;13071;48.868;9.996;2023-03-23T05:07:00;95816.44;;;11.27;74.90
25080;BME280;13071;48.868;9.996;2023-03-23T05:09:26;95823.50;;;11.32;74.04
25080;BME280;13071;48.868;9.996;2023-03-23T05:11:53;95822.31;;;11.30;74.23
25080;BME280;13071;48.868;9.996;2023-03-23T05:14:19;95825.38;;;11.28;74.37
25080;BME280;13071;48.868;9.996;2023-03-23T05:16:46;95818.72;;;11.25;74.96
25080;BME280;13071;48.868;9.996;2023-03-23T05:19:14;95830.78;;;11.28;74.41
25080;BME280;13071;48.868;9.996;2023-03-23T05:21:40;95825.03;;;11.30;74.62
25080;BME280;13071;48.868;9.996;2023-03-23T05:24:08;95818.16;;;11.36;74.71
25080;BME280;13071;48.868;9.996;2023-03-23T05:26:35;95816.69;;;11.38;74.38
25080;BME280;13071;48.868;9.996;2023-03-23T05:29:01;95813.25;;;11.41;73.94
25080;BME280;13071;48.868;9.996;2023-03-23T05:31:28;95813.81;;;11.31;75.04
25080;BME280;13071;48.868;9.996;2023-03-23T05:33:55;95811.53;;;11.33;75.46
25080;BME280;13071;48.868;9.996;2023-03-23T05:36:22;95811.19;;;11.35;74.85
25080;BME280;13071;48.868;9.996;2023-03-23T05:38:50;95816.19;;;11.33;75.75
25080;BME280;13071;48.868;9.996;2023-03-23T05:41:19;95812.69;;;11.32;75.25
25080;BME280;13071;48.868;9.996;2023-03-23T05:43:46;95820.00;;;11.32;76.25
25080;BME280;13071;48.868;9.996;2023-03-23T05:46:12;95820.47;;;11.34;76.59
25080;BME280;13071;48.868;9.996;2023-03-23T05:48:40;95821.66;;;11.36;76.38
25080;BME280;13071;48.868;9.996;2023-03-23T05:51:06;95812.75;;;11.36;76.02
25080;BME280;13071;48.868;9.996;2023-03-23T05:53:33;95813.53;;;11.36;76.03
25080;BME280;13071;48.868;9.996;2023-03-23T05:56:01;95811.97;;;11.35;75.70
25080;BME280;13071;48.868;9.996;2023-03-23T05:58:30;95813.53;;;11.36;76.62
25080;BME280;13071;48.868;9.996;2023-03-23T06:00:56;95820.69;;;11.44;76.87
25080;BME280;13071;48.868;9.996;2023-03-23T06:03:23;95818.41;;;11.46;76.75
25080;BME280;13071;48.868;9.996;2023-03-23T06:05:49;95816.75;;;11.42;76.58
25080;BME280;13071;48.868;9.996;2023-03-23T06:08:17;95816.81;;;11.45;76.03
25080;BME280;13071;48.868;9.996;2023-03-23T06:10:44;95815.84;;;11.53;75.40
25080;BME280;13071;48.868;9.996;2023-03-23T06:13:10;95815.41;;;11.51;75.57
25080;BME280;13071;48.868;9.996;2023-03-23T06:15:38;95820.47;;;11.53;75.23
25080;BME280;13071;48.868;9.996;2023-03-23T06:18:05;95816.66;;;11.54;75.98
25080;BME280;13071;48.868;9.996;2023-03-23T06:20:32;95818.69;;;11.60;75.66
25080;BME280;13071;48.868;9.996;2023-03-23T06:23:00;95827.25;;;11.62;76.06
25080;BME280;13071;48.868;9.996;2023-03-23T06:25:28;95828.47;;;11.65;75.72
25080;BME280;13071;48.868;9.996;2023-03-23T06:27:55;95823.22;;;11.72;75.43
25080;BME280;13071;48.868;9.996;2023-03-23T06:30:21;95822.09;;;11.73;75.87
25080;BME280;13071;48.868;9.996;2023-03-23T06:32:49;95838.88;;;11.79;75.22
25080;BME280;13071;48.868;9.996;2023-03-23T06:35:16;95836.28;;;11.86;74.87
25080;BME280;13071;48.868;9.996;2023-03-23T06:37:42;95829.09;;;11.93;74.11
25080;BME280;13071;48.868;9.996;2023-03-23T06:40:09;95827.66;;;11.99;74.68
25080;BME280;13071;48.868;9.996;2023-03-23T06:42:36;95834.41;;;12.09;74.70
25080;BME280;13071;48.868;9.996;2023-03-23T06:45:04;95838.19;;;12.24;74.88
25080;BME280;13071;48.868;9.996;2023-03-23T06:47:32;95845.69;;;12.30;77.06
25080;BME280;13071;48.868;9.996;2023-03-23T06:50:00;95845.03;;;12.37;77.02
25080;BME280;13071;48.868;9.996;2023-03-23T06:52:27;95846.72;;;12.45;76.84
25080;BME280;13071;48.868;9.996;2023-03-23T06:54:54;95840.69;;;12.55;76.69
25080;BME280;13071;48.868;9.996;2023-03-23T06:57:21;95841.50;;;12.55;78.44
25080;BME280;13071;48.868;9.996;2023-03-23T06:59:47;95836.84;;;12.56;75.94
25080;BME280;13071;48.868;9.996;2023-03-23T07:02:14;95841.25;;;12.64;75.95
25080;BME280;13071;48.868;9.996;2023-03-23T07:04:41;95832.81;;;12.69;77.01
25080;BME280;13071;48.868;9.996;2023-03-23T07:07:10;95837.97;;;12.78;76.67
25080;BME280;13071;48.868;9.996;2023-03-23T07:09:39;95833.91;;;12.87;75.75
25080;BME280;13071;48.868;9.996;2023-03-23T07:12:06;95843.59;;;12.88;75.04
25080;BME280;13071;48.868;9.996;2023-03-23T07:14:33;95842.06;;;12.87;76.37
25080;BME280;13071;48.868;9.996;2023-03-23T07:16:59;95841.25;;;12.87;75.49
25080;BME280;13071;48.868;9.996;2023-03-23T07:19:26;95848.81;;;12.97;74.80
25080;BME280;13071;48.868;9.996;2023-03-23T07:21:53;95857.84;;;13.05;74.83
25080;BME280;13071;48.868;9.996;2023-03-23T07:24:21;95850.25;;;13.14;75.61
25080;BME280;13071;48.868;9.996;2023-03-23T07:26:47;95853.13;;;13.24;74.16
25080;BME280;13071;48.868;9.996;2023-03-23T07:29:14;95850.53;;;13.31;74.49
25080;BME280;13071;48.868;9.996;2023-03-23T07:31:41;95845.13;;;13.35;74.07
25080;BME280;13071;48.868;9.996;2023-03-23T07:34:07;95864.72;;;13.48;74.67
25080;BME280;13071;48.868;9.996;2023-03-23T07:36:34;95868.09;;;13.67;72.20
25080;BME280;13071;48.868;9.996;2023-03-23T07:39:03;95862.53;;;13.87;69.47
25080;BME280;13071;48.868;9.996;2023-03-23T07:41:32;95868.28;;;14.11;67.96
25080;BME280;13071;48.868;9.996;2023-03-23T07:43:59;95870.50;;;14.02;67.72
25080;BME280;13071;48.868;9.996;2023-03-23T07:46:25;95867.06;;;14.05;67.51
25080;BME280;13071;48.868;9.996;2023-03-23T07:48:52;95871.00;;;14.11;68.23
25080;BME280;13071;48.868;9.996;2023-03-23T07:51:18;95870.25;;;14.11;67.59
25080;BME280;13071;48.868;9.996;2023-03-23T07:53:45;95875.09;;;14.28;65.48
25080;BME280;13071;48.868;9.996;2023-03-23T07:56:12;95874.66;;;14.22;65.33
25080;BME280;13071;48.868;9.996;2023-03-23T07:58:41;95881.63;;;14.20;66.14
25080;BME280;13071;48.868;9.996;2023-03-23T08:01:09;95881.88;;;14.11;66.75
25080;BME280;13071;48.868;9.996;2023-03-23T08:03:36;95881.31;;;14.25;64.55
25080;BME280;13071;48.868;9.996;2023-03-23T08:06:04;95887.34;;;14.11;65.44
25080;BME280;13071;48.868;9.996;2023-03-23T08:08:30;95890.34;;;14.03;65.12
25080;BME280;13071;48.868;9.996;2023-03-23T08:10:58;95885.72;;;14.07;66.21
25080;BME280;13071;48.868;9.996;2023-03-23T08:13:25;95890.47;;;14.13;66.75
25080;BME280;13071;48.868;9.996;2023-03-23T08:15:53;95891.72;;;14.19;66.85
25080;BME280;13071;48.868;9.996;2023-03-23T08:18:19;95897.25;;;14.26;66.40
25080;BME280;13071;48.868;9.996;2023-03-23T08:20:46;95892.38;;;14.39;66.32
25080;BME280;13071;48.868;9.996;2023-03-23T08:23:14;95893.47;;;14.68;65.58
25080;BME280;13071;48.868;9.996;2023-03-23T08:25:41;95898.09;;;14.64;65.27
25080;BME280;13071;48.868;9.996;2023-03-23T08:28:08;95898.03;;;14.60;65.87
25080;BME280;13071;48.868;9.996;2023-03-23T08:30:35;95905.06;;;14.61;65.47
25080;BME280;13071;48.868;9.996;2023-03-23T08:33:07;95905.66;;;14.81;65.84
25080;BME280;13071;48.868;9.996;2023-03-23T08:35:35;95904.91;;;14.84;64.03
25080;BME280;13071;48.868;9.996;2023-03-23T08:38:03;95908.47;;;14.92;64.62
25080;BME280;13071;48.868;9.996;2023-03-23T08:40:29;95914.03;;;15.02;62.83
25080;BME280;13071;48.868;9.996;2023-03-23T08:42:57;95923.34;;;14.98;63.34
25080;BME280;13071;48.868;9.996;2023-03-23T08:45:25;95925.38;;;15.08;63.44
25080;BME280;13071;48.868;9.996;2023-03-23T08:47:51;95930.16;;;15.22;62.71
25080;BME280;13071;48.868;9.996;2023-03-23T08:50:23;95936.38;;;15.19;62.76
25080;BME280;13071;48.868;9.996;2023-03-23T08:52:51;95928.22;;;15.19;62.96
25080;BME280;13071;48.868;9.996;2023-03-23T08:55:18;95939.13;;;15.22;61.86
25080;BME280;13071;48.868;9.996;2023-03-23T08:57:45;95932.22;;;15.32;62.71
25080;BME280;13071;48.868;9.996;2023-03-23T09:00:14;95933.38;;;15.34;62.24
25080;BME280;13071;48.868;9.996;2023-03-23T09:02:43;95950.22;;;15.43;62.71
25080;BME280;13071;48.868;9.996;2023-03-23T09:05:11;95952.69;;;15.55;60.45
25080;BME280;13071;48.868;9.996;2023-03-23T09:07:41;95939.81;;;15.56;60.71
25080;BME280;13071;48.868;9.996;2023-03-23T09:10:09;95941.31;;;15.50;60.20
25080;BME280;13071;48.868;9.996;2023-03-23T09:12:36;95934.81;;;15.65;60.97
25080;BME280;13071;48.868;9.996;2023-03-23T09:15:03;95940.69;;;15.67;61.59
25080;BME280;13071;48.868;9.996;2023-03-23T09:17:34;95935.22;;;15.64;61.33
25080;BME280;13071;48.868;9.996;2023-03-23T09:20:01;95947.63;;;15.54;61.35
25080;BME280;13071;48.868;9.996;2023-03-23T09:22:32;95957.03;;;15.64;61.10
25080;BME280;13071;48.868;9.996;2023-03-23T09:25:00;95960.53;;;15.64;60.80
25080;BME280;13071;48.868;9.996;2023-03-23T09:27:27;95953.53;;;15.63;61.48
25080;BME280;13071;48.868;9.996;2023-03-23T09:29:53;95955.94;;;15.72;60.99
25080;BME280;13071;48.868;9.996;2023-03-23T09:32:20;95960.59;;;15.71;60.53
25080;BME280;13071;48.868;9.996;2023-03-23T09:34:47;95963.03;;;15.83;61.16
25080;BME280;13071;48.868;9.996;2023-03-23T09:37:14;95962.63;;;15.81;60.82
25080;BME280;13071;48.868;9.996;2023-03-23T09:39:42;95970.38;;;15.79;61.82
25080;BME280;13071;48.868;9.996;2023-03-23T09:42:21;95955.06;;;15.61;60.83
25080;BME280;13071;48.868;9.996;2023-03-23T09:45:01;95977.25;;;15.59;62.00
25080;BME280;13071;48.868;9.996;2023-03-23T09:47:34;95986.13;;;15.49;62.58
25080;BME280;13071;48.868;9.996;2023-03-23T09:50:07;95978.22;;;15.37;62.76
25080;BME280;13071;48.868;9.996;2023-03-23T09:52:38;95986.81;;;15.39;64.15
25080;BME280;13071;48.868;9.996;2023-03-23T09:55:08;95991.03;;;15.33;63.97
25080;BME280;13071;48.868;9.996;2023-03-23T09:57:43;95981.69;;;15.34;62.88
25080;BME280;13071;48.868;9.996;2023-03-23T10:00:15;95989.00;;;15.26;63.60
25080;BME280;13071;48.868;9.996;2023-03-23T10:02:49;95997.88;;;15.16;64.55
25080;BME280;13071;48.868;9.996;2023-03-23T10:05:31;96000.69;;;15.23;63.70
25080;BME280;13071;48.868;9.996;2023-03-23T10:08:00;95999.53;;;15.28;64.12
25080;BME280;13071;48.868;9.996;2023-03-23T10:10:33;96003.09;;;15.35;63.67
25080;BME280;13071;48.868;9.996;2023-03-23T10:13:10;96000.44;;;15.39;64.51
25080;BME280;13071;48.868;9.996;2023-03-23T10:15:43;95998.13;;;15.44;63.85
25080;BME280;13071;48.868;9.996;2023-03-23T10:18:13;95999.22;;;15.33;64.13
25080;BME280;13071;48.868;9.996;2023-03-23T10:20:48;96003.16;;;15.39;64.41
25080;BME280;13071;48.868;9.996;2023-03-23T10:23:35;95991.28;;;15.21;63.98
25080;BME280;13071;48.868;9.996;2023-03-23T10:26:11;95998.28;;;15.18;63.99
25080;BME280;13071;48.868;9.996;2023-03-23T10:28:42;95999.00;;;15.11;64.78
25080;BME280;13071;48.868;9.996;2023-03-23T10:31:11;96002.06;;;15.06;65.48
25080;BME280;13071;48.868;9.996;2023-03-23T10:33:41;95997.53;;;15.21;64.75
25080;BME280;13071;48.868;9.996;2023-03-23T10:36:11;96011.00;;;15.07;64.97
25080;BME280;13071;48.868;9.996;2023-03-23T10:38:43;96004.00;;;15.06;65.89
25080;BME280;13071;48.868;9.996;2023-03-23T10:41:13;95996.69;;;15.13;65.31
25080;BME280;13071;48.868;9.996;2023-03-23T10:43:41;96002.06;;;15.10;65.43
25080;BME280;13071;48.868;9.996;2023-03-23T10:46:17;96002.13;;;15.13;65.99
25080;BME280;13071;48.868;9.996;2023-03-23T10:48:48;95997.41;;;15.10;66.40
25080;BME280;13071;48.868;9.996;2023-03-23T10:51:19;96015.31;;;15.08;66.98
25080;BME280;13071;48.868;9.996;2023-03-23T10:53:50;96008.78;;;15.20;67.55
25080;BME280;13071;48.868;9.996;2023-03-23T10:56:23;96009.88;;;15.11;66.89
25080;BME280;13071;48.868;9.996;2023-03-23T10:58:52;96020.00;;;15.11;67.21
25080;BME280;13071;48.868;9.996;2023-03-23T11:01:20;96023.03;;;15.02;68.26
25080;BME280;13071;48.868;9.996;2023-03-23T11:03:54;96020.22;;;14.95;68.30
25080;BME280;13071;48.868;9.996;2023-03-23T11:06:22;96016.81;;;15.05;67.53
25080;BME280;13071;48.868;9.996;2023-03-23T11:08:52;96023.69;;;14.92;68.50
25080;BME280;13071;48.868;9.996;2023-03-23T11:11:25;96021.88;;;15.03;68.47
25080;BME280;13071;48.868;9.996;2023-03-23T11:13:58;96026.09;;;14.97;68.96
25080;BME280;13071;48.868;9.996;2023-03-23T11:16:27;96018.50;;;15.17;68.74
25080;BME280;13071;48.868;9.996;2023-03-23T11:18:54;96018.16;;;15.19;68.63
25080;BME280;13071;48.868;9.996;2023-03-23T11:21:23;96021.75;;;15.30;68.25
25080;BME280;13071;48.868;9.996;2023-03-23T11:23:54;96021.06;;;15.40;67.87
25080;BME280;13071;48.868;9.996;2023-03-23T11:26:24;96011.34;;;15.39;68.01
25080;BME280;13071;48.868;9.996;2023-03-23T11:28:55;96018.09;;;15.52;66.95
25080;BME280;13071;48.868;9.996;2023-03-23T11:31:27;96019.00;;;15.67;66.34
25080;BME280;13071;48.868;9.996;2023-03-23T11:33:57;96016.63;;;15.58;67.37
25080;BME280;13071;48.868;9.996;2023-03-23T11:36:30;96020.50;;;15.61;66.97
25080;BME280;13071;48.868;9.996;2023-03-23T11:38:57;96010.50;;;15.75;65.64
25080;BME280;13071;48.868;9.996;2023-03-23T11:41:34;96009.81;;;15.85;65.86
25080;BME280;13071;48.868;9.996;2023-03-23T11:44:09;96006.75;;;15.94;65.04
25080;BME280;13071;48.868;9.996;2023-03-23T11:46:44;96013.13;;;16.12;64.97
25080;BME280;13071;48.868;9.996;2023-03-23T11:49:20;96006.59;;;16.27;65.14
25080;BME280;13071;48.868;9.996;2023-03-23T11:51:54;96009.69;;;16.26;63.90
25080;BME280;13071;48.868;9.996;2023-03-23T11:54:30;96008.13;;;16.28;64.77
25080;BME280;13071;48.868;9.996;2023-03-23T11:56:58;96014.81;;;16.38;65.05
25080;BME280;13071;48.868;9.996;2023-03-23T11:59:29;96000.44;;;16.41;64.92
25080;BME280;13071;48.868;9.996;2023-03-23T12:02:08;96006.25;;;16.39;64.81
25080;BME280;13071;48.868;9.996;2023-03-23T12:04:56;95997.69;;;16.45;64.82
25080;BME280;13071;48.868;9.996;2023-03-23T12:07:48;96000.53;;;16.59;65.82
25080;BME280;13071;48.868;9.996;2023-03-23T12:10:25;95995.47;;;16.64;65.79
25080;BME280;13071;48.868;9.996;2023-03-23T12:13:02;95995.03;;;16.55;65.69
25080;BME280;13071;48.868;9.996;2023-03-23T12:15:36;95992.34;;;16.59;66.40
25080;BME280;13071;48.868;9.996;2023-03-23T12:18:17;95992.75;;;16.61;65.45
25080;BME280;13071;48.868;9.996;2023-03-23T12:20:56;95982.63;;;16.68;66.42
25080;BME280;13071;48.868;9.996;2023-03-23T12:23:29;95981.53;;;16.87;66.05
25080;BME280;13071;48.868;9.996;2023-03-23T12:26:20;95983.47;;;16.87;65.87
25080;BME280;13071;48.868;9.996;2023-03-23T12:29:00;95970.19;;;16.89;63.63
25080;BME280;13071;48.868;9.996;2023-03-23T12:31:35;95971.72;;;16.79;64.20
25080;BME280;13071;48.868;9.996;2023-03-23T12:34:15;95966.25;;;16.79;63.38
25080;BME280;13071;48.868;9.996;2023-03-23T12:36:56;95962.03;;;17.03;63.57
25080;BME280;13071;48.868;9.996;2023-03-23T12:40:06;95960.47;;;16.98;63.37
25080;BME280;13071;48.868;9.996;2023-03-23T12:42:41;95959.69;;;16.98;63.08
25080;BME280;13071;48.868;9.996;2023-03-23T12:45:19;95962.84;;;17.14;62.90
25080;BME280;13071;48.868;9.996;2023-03-23T12:47:51;95964.41;;;17.18;63.55
25080;BME280;13071;48.868;9.996;2023-03-23T12:50:24;95964.41;;;17.18;62.96
25080;BME280;13071;48.868;9.996;2023-03-23T12:52:56;95957.75;;;17.09;63.12
25080;BME280;13071;48.868;9.996;2023-03-23T12:55:29;95960.91;;;17.32;62.75
25080;BME280;13071;48.868;9.996;2023-03-23T12:58:02;95962.09;;;17.42;62.74
25080;BME280;13071;48.868;9.996;2023-03-23T13:00:34;95953.50;;;17.33;61.31
25080;BME280;13071;48.868;9.996;2023-03-23T13:03:07;95952.69;;;17.18;61.23
25080;BME280;13071;48.868;9.996;2023-03-23T13:05:41;95956.59;;;17.10;61.84
25080;BME280;13071;48.868;9.996;2023-03-23T13:08:14;95947.19;;;17.00;62.96
25080;BME280;13071;48.868;9.996;2023-03-23T13:10:47;95944.09;;;17.02;64.07
25080;BME280;13071;48.868;9.996;2023-03-23T13:13:17;95952.97;;;16.70;62.89
25080;BME280;13071;48.868;9.996;2023-03-23T13:15:52;95951.84;;;16.89;63.04